sensor_id;sensor_type;location;lat;lon;timestamp;temperature;humidity
51557;DHT22;38766;53.194;5.532;2022-12-18T00:01:20;-1.70;99.90
51557;DHT22;38766;53.194;5.532;2022-12-18T00:03:46;-1.70;99.90
51557;DHT22;38766;53.194;5.532;2022-12-18T00:06:12;-1.70;99.90
51557;DHT22;38766;53.194;5.532;2022-12-18T00:08:39;-1.70;99.90
51557;DHT22;38766;53.194;5.532;2022-12-18T00:11:07;-1.70;99.90
51557;DHT22;38766;53.194;5.532;2022-12-18T00:13:34;-1.70;99.90
51557;DHT22;38766;53.194;5.532;2022-12-18T00:16:08;-1.70;99.90
51557;DHT22;38766;53.194;5.532;2022-12-18T00:18:34;-1.70;99.90
51557;DHT22;38766;53.194;5.532;2022-12-18T00:21:02;-1.70;99.90
51557;DHT22;38766;53.194;5.532;2022-12-18T00:23:29;-1.70;99.90
51557;DHT22;38766;53.194;5.532;2022-12-18T00:25:59;-1.70;99.90
51557;DHT22;38766;53.194;5.532;2022-12-18T00:28:25;-1.70;99.90
51557;DHT22;38766;53.194;5.532;2022-12-18T00:30:58;-1.60;99.90
51557;DHT22;38766;53.194;5.532;2022-12-18T00:33:24;-1.70;99.90
51557;DHT22;38766;53.194;5.532;2022-12-18T00:35:49;-1.60;99.90
51557;DHT22;38766;53.194;5.532;2022-12-18T00:38:15;-1.60;99.90
51557;DHT22;38766;53.194;5.532;2022-12-18T00:40:41;-1.60;99.90
51557;DHT22;38766;53.194;5.532;2022-12-18T00:43:09;-1.60;99.90
51557;DHT22;38766;53.194;5.532;2022-12-18T00:45:35;-1.60;99.90
51557;DHT22;38766;53.194;5.532;2022-12-18T00:48:00;-1.50;99.90
51557;DHT22;38766;53.194;5.532;2022-12-18T00:50:26;-1.50;99.90
51557;DHT22;38766;53.194;5.532;2022-12-18T00:52:52;-1.50;99.90
51557;DHT22;38766;53.194;5.532;2022-12-18T00:55:18;-1.50;99.90
51557;DHT22;38766;53.194;5.532;2022-12-18T00:57:43;-1.60;99.90
51557;DHT22;38766;53.194;5.532;2022-12-18T01:00:12;-1.50;99.90
51557;DHT22;38766;53.194;5.532;2022-12-18T01:02:38;-1.50;99.90
51557;DHT22;38766;53.194;5.532;2022-12-18T01:05:05;-1.50;99.90
51557;DHT22;38766;53.194;5.532;2022-12-18T01:07:30;-1.50;99.90
51557;DHT22;38766;53.194;5.532;2022-12-18T01:09:56;-1.50;99.90
51557;DHT22;38766;53.194;5.532;2022-12-18T01:12:22;-1.50;99.90
51557;DHT22;38766;53.194;5.532;2022-12-18T01:14:47;-1.50;99.90
51557;DHT22;38766;53.194;5.532;2022-12-18T01:17:14;-1.50;99.90
51557;DHT22;38766;53.194;5.532;2022-12-18T01:19:40;-1.50;99.90
51557;DHT22;38766;53.194;5.532;2022-12-18T01:22:06;-1.60;99.90
51557;DHT22;38766;53.194;5.532;2022-12-18T01:24:34;-1.60;99.90
51557;DHT22;38766;53.194;5.532;2022-12-18T01:27:00;-1.60;99.90
51557;DHT22;38766;53.194;5.532;2022-12-18T01:29:26;-1.60;99.90
51557;DHT22;38766;53.194;5.532;2022-12-18T01:31:55;-1.60;99.90
51557;DHT22;38766;53.194;5.532;2022-12-18T01:34:21;-1.60;99.90
51557;DHT22;38766;53.194;5.532;2022-12-18T01:36:47;-1.60;99.90
51557;DHT22;38766;53.194;5.532;2022-12-18T01:39:14;-1.60;99.90
51557;DHT22;38766;53.194;5.532;2022-12-18T01:41:40;-1.60;99.90
51557;DHT22;38766;53.194;5.532;2022-12-18T01:49:57;-1.70;99.90
51557;DHT22;38766;53.194;5.532;2022-12-18T01:52:27;-1.70;99.90
51557;DHT22;38766;53.194;5.532;2022-12-18T01:54:53;-1.70;99.90
51557;DHT22;38766;53.194;5.532;2022-12-18T01:57:20;-1.70;99.90
51557;DHT22;38766;53.194;5.532;2022-12-18T01:59:51;-1.70;99.90
51557;DHT22;38766;53.194;5.532;2022-12-18T02:02:18;-1.80;99.90
51557;DHT22;38766;53.194;5.532;2022-12-18T02:04:45;-1.80;99.90
51557;DHT22;38766;53.194;5.532;2022-12-18T02:10:15;-1.90;99.90
51557;DHT22;38766;53.194;5.532;2022-12-18T02:12:51;-1.90;99.90
51557;DHT22;38766;53.194;5.532;2022-12-18T02:15:36;-2.00;99.90
51557;DHT22;38766;53.194;5.532;2022-12-18T02:18:15;-2.00;99.90
51557;DHT22;38766;53.194;5.532;2022-12-18T02:20:48;-2.10;99.90
51557;DHT22;38766;53.194;5.532;2022-12-18T02:28:59;-2.20;99.90
51557;DHT22;38766;53.194;5.532;2022-12-18T02:31:28;-2.30;99.90
51557;DHT22;38766;53.194;5.532;2022-12-18T02:34:02;-2.30;99.90
51557;DHT22;38766;53.194;5.532;2022-12-18T02:36:29;-2.30;99.90
51557;DHT22;38766;53.194;5.532;2022-12-18T02:38:58;-2.30;99.90
51557;DHT22;38766;53.194;5.532;2022-12-18T02:41:25;-2.40;99.90
51557;DHT22;38766;53.194;5.532;2022-12-18T02:43:57;-2.40;99.90
51557;DHT22;38766;53.194;5.532;2022-12-18T02:46:31;-2.30;99.90
51557;DHT22;38766;53.194;5.532;2022-12-18T02:54:57;-2.40;99.90
51557;DHT22;38766;53.194;5.532;2022-12-18T02:57:33;-2.40;99.90
51557;DHT22;38766;53.194;5.532;2022-12-18T03:02:30;-2.40;99.90
51557;DHT22;38766;53.194;5.532;2022-12-18T03:08:02;-2.30;99.90
51557;DHT22;38766;53.194;5.532;2022-12-18T03:10:32;-2.30;99.90
51557;DHT22;38766;53.194;5.532;2022-12-18T03:13:07;-2.30;99.90
51557;DHT22;38766;53.194;5.532;2022-12-18T03:15:35;-2.40;99.90
51557;DHT22;38766;53.194;5.532;2022-12-18T03:18:07;-2.40;99.90
51557;DHT22;38766;53.194;5.532;2022-12-18T03:20:36;-2.40;99.90
51557;DHT22;38766;53.194;5.532;2022-12-18T03:23:15;-2.40;99.90
51557;DHT22;38766;53.194;5.532;2022-12-18T03:25:44;-2.40;99.90
51557;DHT22;38766;53.194;5.532;2022-12-18T03:28:16;-2.40;99.90
51557;DHT22;38766;53.194;5.532;2022-12-18T03:30:46;-2.40;99.90
51557;DHT22;38766;53.194;5.532;2022-12-18T03:36:14;-2.40;99.90
51557;DHT22;38766;53.194;5.532;2022-12-18T03:38:40;-2.40;99.90
51557;DHT22;38766;53.194;5.532;2022-12-18T03:41:26;-2.40;99.90
51557;DHT22;38766;53.194;5.532;2022-12-18T03:44:09;-2.40;99.90
51557;DHT22;38766;53.194;5.532;2022-12-18T03:46:40;-2.40;99.90
51557;DHT22;38766;53.194;5.532;2022-12-18T03:50:03;-2.40;99.90
51557;DHT22;38766;53.194;5.532;2022-12-18T03:52:14;-2.40;99.90
51557;DHT22;38766;53.194;5.532;2022-12-18T03:54:44;-2.50;99.90
51557;DHT22;38766;53.194;5.532;2022-12-18T03:57:17;-2.50;99.90
51557;DHT22;38766;53.194;5.532;2022-12-18T03:59:44;-2.50;99.90
51557;DHT22;38766;53.194;5.532;2022-12-18T04:02:12;-2.60;99.90
51557;DHT22;38766;53.194;5.532;2022-12-18T04:04:39;-2.60;99.90
51557;DHT22;38766;53.194;5.532;2022-12-18T04:07:06;-2.60;99.90
51557;DHT22;38766;53.194;5.532;2022-12-18T04:09:33;-2.60;99.90
51557;DHT22;38766;53.194;5.532;2022-12-18T04:11:59;-2.70;99.90
51557;DHT22;38766;53.194;5.532;2022-12-18T04:14:25;-2.70;99.90
51557;DHT22;38766;53.194;5.532;2022-12-18T04:16:51;-2.80;99.90
51557;DHT22;38766;53.194;5.532;2022-12-18T04:19:16;-2.80;99.90
51557;DHT22;38766;53.194;5.532;2022-12-18T04:21:42;-2.90;99.90
51557;DHT22;38766;53.194;5.532;2022-12-18T04:24:08;-3.00;99.90
51557;DHT22;38766;53.194;5.532;2022-12-18T04:26:34;-3.00;99.90
51557;DHT22;38766;53.194;5.532;2022-12-18T04:28:59;-3.10;99.90
51557;DHT22;38766;53.194;5.532;2022-12-18T04:31:25;-3.10;99.90
51557;DHT22;38766;53.194;5.532;2022-12-18T04:33:51;-3.10;99.90
51557;DHT22;38766;53.194;5.532;2022-12-18T04:36:17;-3.20;99.90
51557;DHT22;38766;53.194;5.532;2022-12-18T04:38:42;-3.20;99.90
51557;DHT22;38766;53.194;5.532;2022-12-18T04:41:08;-3.30;99.90
51557;DHT22;38766;53.194;5.532;2022-12-18T04:43:34;-3.30;99.90
51557;DHT22;38766;53.194;5.532;2022-12-18T04:46:04;-3.30;99.90
51557;DHT22;38766;53.194;5.532;2022-12-18T04:48:30;-3.30;99.90
51557;DHT22;38766;53.194;5.532;2022-12-18T04:50:56;-3.40;99.90
51557;DHT22;38766;53.194;5.532;2022-12-18T04:53:22;-3.30;99.90
51557;DHT22;38766;53.194;5.532;2022-12-18T04:55:47;-3.30;99.90
51557;DHT22;38766;53.194;5.532;2022-12-18T04:58:13;-3.40;99.90
51557;DHT22;38766;53.194;5.532;2022-12-18T05:00:38;-3.40;99.90
51557;DHT22;38766;53.194;5.532;2022-12-18T05:03:04;-3.40;99.90
51557;DHT22;38766;53.194;5.532;2022-12-18T05:05:30;-3.50;99.90
51557;DHT22;38766;53.194;5.532;2022-12-18T05:07:56;-3.50;99.90
51557;DHT22;38766;53.194;5.532;2022-12-18T05:10:22;-3.50;99.90
51557;DHT22;38766;53.194;5.532;2022-12-18T05:12:47;-3.50;99.90
51557;DHT22;38766;53.194;5.532;2022-12-18T05:15:32;-3.50;99.90
51557;DHT22;38766;53.194;5.532;2022-12-18T05:17:58;-3.50;99.90
51557;DHT22;38766;53.194;5.532;2022-12-18T05:20:25;-3.50;99.90
51557;DHT22;38766;53.194;5.532;2022-12-18T05:22:51;-3.50;99.90
51557;DHT22;38766;53.194;5.532;2022-12-18T05:25:17;-3.50;99.90
51557;DHT22;38766;53.194;5.532;2022-12-18T05:27:44;-3.50;99.90
51557;DHT22;38766;53.194;5.532;2022-12-18T05:30:11;-3.60;99.90
51557;DHT22;38766;53.194;5.532;2022-12-18T05:32:37;-3.60;99.90
51557;DHT22;38766;53.194;5.532;2022-12-18T05:35:04;-3.60;99.90
51557;DHT22;38766;53.194;5.532;2022-12-18T05:37:30;-3.60;99.90
51557;DHT22;38766;53.194;5.532;2022-12-18T05:39:56;-3.60;99.90
51557;DHT22;38766;53.194;5.532;2022-12-18T05:42:22;-3.60;99.90
51557;DHT22;38766;53.194;5.532;2022-12-18T05:44:47;-3.60;99.90
51557;DHT22;38766;53.194;5.532;2022-12-18T05:47:13;-3.60;99.90
51557;DHT22;38766;53.194;5.532;2022-12-18T05:49:39;-3.60;99.90
51557;DHT22;38766;53.194;5.532;2022-12-18T05:52:04;-3.60;99.90
51557;DHT22;38766;53.194;5.532;2022-12-18T05:54:30;-3.70;99.90
51557;DHT22;38766;53.194;5.532;2022-12-18T05:56:56;-3.60;99.90
51557;DHT22;38766;53.194;5.532;2022-12-18T05:59:25;-3.70;99.90
51557;DHT22;38766;53.194;5.532;2022-12-18T06:01:51;-3.70;99.90
51557;DHT22;38766;53.194;5.532;2022-12-18T06:04:16;-3.70;99.90
51557;DHT22;38766;53.194;5.532;2022-12-18T06:06:42;-3.70;99.90
51557;DHT22;38766;53.194;5.532;2022-12-18T06:09:08;-3.70;99.90
51557;DHT22;38766;53.194;5.532;2022-12-18T06:11:36;-3.70;99.90
51557;DHT22;38766;53.194;5.532;2022-12-18T06:14:03;-3.80;99.90
51557;DHT22;38766;53.194;5.532;2022-12-18T06:16:30;-3.80;99.90
51557;DHT22;38766;53.194;5.532;2022-12-18T06:19:00;-3.80;99.90
51557;DHT22;38766;53.194;5.532;2022-12-18T06:21:26;-3.80;99.90
51557;DHT22;38766;53.194;5.532;2022-12-18T06:23:52;-3.70;99.90
51557;DHT22;38766;53.194;5.532;2022-12-18T06:26:18;-3.70;99.90
51557;DHT22;38766;53.194;5.532;2022-12-18T06:28:43;-3.70;99.90
51557;DHT22;38766;53.194;5.532;2022-12-18T06:31:09;-3.70;99.90
51557;DHT22;38766;53.194;5.532;2022-12-18T06:33:36;-3.70;99.90
51557;DHT22;38766;53.194;5.532;2022-12-18T06:36:03;-3.60;99.90
51557;DHT22;38766;53.194;5.532;2022-12-18T06:38:30;-3.60;99.90
51557;DHT22;38766;53.194;5.532;2022-12-18T06:40:56;-3.60;99.90
51557;DHT22;38766;53.194;5.532;2022-12-18T06:43:22;-3.60;99.90
51557;DHT22;38766;53.194;5.532;2022-12-18T06:45:47;-3.60;99.90
51557;DHT22;38766;53.194;5.532;2022-12-18T06:48:18;-3.60;99.90
51557;DHT22;38766;53.194;5.532;2022-12-18T06:50:44;-3.70;99.90
51557;DHT22;38766;53.194;5.532;2022-12-18T06:53:10;-3.70;99.90
51557;DHT22;38766;53.194;5.532;2022-12-18T06:55:36;-3.70;99.90
51557;DHT22;38766;53.194;5.532;2022-12-18T06:58:01;-3.70;99.90
51557;DHT22;38766;53.194;5.532;2022-12-18T07:00:27;-3.70;99.90
51557;DHT22;38766;53.194;5.532;2022-12-18T07:02:52;-3.80;99.90
51557;DHT22;38766;53.194;5.532;2022-12-18T07:05:18;-3.80;99.90
51557;DHT22;38766;53.194;5.532;2022-12-18T07:07:44;-3.80;99.90
51557;DHT22;38766;53.194;5.532;2022-12-18T07:10:09;-3.90;99.90
51557;DHT22;38766;53.194;5.532;2022-12-18T07:12:35;-3.90;99.90
51557;DHT22;38766;53.194;5.532;2022-12-18T07:15:04;-3.90;99.90
51557;DHT22;38766;53.194;5.532;2022-12-18T07:17:30;-3.90;99.90
51557;DHT22;38766;53.194;5.532;2022-12-18T07:19:56;-3.90;99.90
51557;DHT22;38766;53.194;5.532;2022-12-18T07:22:21;-3.90;99.90
51557;DHT22;38766;53.194;5.532;2022-12-18T07:24:47;-4.00;99.90
51557;DHT22;38766;53.194;5.532;2022-12-18T07:27:14;-4.00;99.90
51557;DHT22;38766;53.194;5.532;2022-12-18T07:29:40;-4.10;99.90
51557;DHT22;38766;53.194;5.532;2022-12-18T07:32:05;-4.10;99.90
51557;DHT22;38766;53.194;5.532;2022-12-18T07:34:32;-4.10;99.90
51557;DHT22;38766;53.194;5.532;2022-12-18T07:36:58;-4.10;99.90
51557;DHT22;38766;53.194;5.532;2022-12-18T07:39:23;-4.20;99.90
51557;DHT22;38766;53.194;5.532;2022-12-18T07:41:49;-4.10;99.90
51557;DHT22;38766;53.194;5.532;2022-12-18T07:44:35;-4.10;99.90
51557;DHT22;38766;53.194;5.532;2022-12-18T07:47:01;-4.10;99.90
51557;DHT22;38766;53.194;5.532;2022-12-18T07:49:27;-4.10;99.90
51557;DHT22;38766;53.194;5.532;2022-12-18T07:51:55;-4.10;99.90
51557;DHT22;38766;53.194;5.532;2022-12-18T07:54:22;-4.10;99.90
51557;DHT22;38766;53.194;5.532;2022-12-18T07:56:47;-4.10;99.90
51557;DHT22;38766;53.194;5.532;2022-12-18T07:59:13;-4.10;99.90
51557;DHT22;38766;53.194;5.532;2022-12-18T08:01:38;-4.20;99.90
51557;DHT22;38766;53.194;5.532;2022-12-18T08:04:04;-4.20;99.90
51557;DHT22;38766;53.194;5.532;2022-12-18T08:06:30;-4.20;99.90
51557;DHT22;38766;53.194;5.532;2022-12-18T08:08:56;-4.20;99.90
51557;DHT22;38766;53.194;5.532;2022-12-18T08:11:23;-4.10;99.90
51557;DHT22;38766;53.194;5.532;2022-12-18T08:13:49;-4.10;99.90
51557;DHT22;38766;53.194;5.532;2022-12-18T08:16:15;-4.10;99.90
51557;DHT22;38766;53.194;5.532;2022-12-18T08:18:40;-4.10;99.90
51557;DHT22;38766;53.194;5.532;2022-12-18T08:21:22;-4.00;99.90
51557;DHT22;38766;53.194;5.532;2022-12-18T08:23:49;-4.00;99.90
51557;DHT22;38766;53.194;5.532;2022-12-18T08:26:15;-4.00;99.90
51557;DHT22;38766;53.194;5.532;2022-12-18T08:28:42;-4.00;99.90
51557;DHT22;38766;53.194;5.532;2022-12-18T08:31:08;-4.00;99.90
51557;DHT22;38766;53.194;5.532;2022-12-18T08:33:35;-4.00;99.90
51557;DHT22;38766;53.194;5.532;2022-12-18T08:36:03;-4.00;99.90
51557;DHT22;38766;53.194;5.532;2022-12-18T08:38:29;-3.90;99.90
51557;DHT22;38766;53.194;5.532;2022-12-18T08:41:05;-3.90;99.90
51557;DHT22;38766;53.194;5.532;2022-12-18T08:43:31;-3.90;99.90
51557;DHT22;38766;53.194;5.532;2022-12-18T08:46:17;-3.80;99.90
51557;DHT22;38766;53.194;5.532;2022-12-18T08:48:43;-3.80;99.90
51557;DHT22;38766;53.194;5.532;2022-12-18T08:51:09;-3.70;99.90
51557;DHT22;38766;53.194;5.532;2022-12-18T08:53:35;-3.70;99.90
51557;DHT22;38766;53.194;5.532;2022-12-18T08:56:01;-3.70;99.90
51557;DHT22;38766;53.194;5.532;2022-12-18T08:58:27;-3.70;99.90
51557;DHT22;38766;53.194;5.532;2022-12-18T09:00:53;-3.60;99.90
51557;DHT22;38766;53.194;5.532;2022-12-18T09:03:19;-3.60;99.90
51557;DHT22;38766;53.194;5.532;2022-12-18T09:05:48;-3.50;99.90
51557;DHT22;38766;53.194;5.532;2022-12-18T09:08:14;-3.50;99.90
51557;DHT22;38766;53.194;5.532;2022-12-18T09:10:47;-3.40;99.90
51557;DHT22;38766;53.194;5.532;2022-12-18T09:13:13;-3.30;99.90
51557;DHT22;38766;53.194;5.532;2022-12-18T09:15:53;-3.30;99.90
51557;DHT22;38766;53.194;5.532;2022-12-18T09:18:21;-3.30;99.90
51557;DHT22;38766;53.194;5.532;2022-12-18T09:20:47;-3.20;99.90
51557;DHT22;38766;53.194;5.532;2022-12-18T09:23:13;-3.10;99.90
51557;DHT22;38766;53.194;5.532;2022-12-18T09:25:39;-3.10;99.90
51557;DHT22;38766;53.194;5.532;2022-12-18T09:28:09;-3.00;99.90
51557;DHT22;38766;53.194;5.532;2022-12-18T09:30:40;-2.90;99.90
51557;DHT22;38766;53.194;5.532;2022-12-18T09:33:06;-2.90;99.90
51557;DHT22;38766;53.194;5.532;2022-12-18T09:35:32;-2.90;99.90
51557;DHT22;38766;53.194;5.532;2022-12-18T09:37:58;-2.80;99.90
51557;DHT22;38766;53.194;5.532;2022-12-18T09:40:26;-2.80;99.90
51557;DHT22;38766;53.194;5.532;2022-12-18T09:42:57;-2.70;99.90
51557;DHT22;38766;53.194;5.532;2022-12-18T09:45:24;-2.70;99.90
51557;DHT22;38766;53.194;5.532;2022-12-18T09:47:52;-2.70;99.90
51557;DHT22;38766;53.194;5.532;2022-12-18T09:50:31;-2.60;99.90
51557;DHT22;38766;53.194;5.532;2022-12-18T09:53:02;-2.60;99.90
51557;DHT22;38766;53.194;5.532;2022-12-18T09:55:34;-2.60;99.90
51557;DHT22;38766;53.194;5.532;2022-12-18T09:58:20;-2.50;99.90
51557;DHT22;38766;53.194;5.532;2022-12-18T10:00:52;-2.50;99.90
51557;DHT22;38766;53.194;5.532;2022-12-18T10:03:18;-2.40;99.90
51557;DHT22;38766;53.194;5.532;2022-12-18T10:11:29;-2.30;99.90
51557;DHT22;38766;53.194;5.532;2022-12-18T10:27:32;-2.00;99.90
51557;DHT22;38766;53.194;5.532;2022-12-18T10:29:58;-2.00;99.90
51557;DHT22;38766;53.194;5.532;2022-12-18T10:32:29;-2.00;99.90
51557;DHT22;38766;53.194;5.532;2022-12-18T10:34:57;-1.90;99.90
51557;DHT22;38766;53.194;5.532;2022-12-18T10:37:28;-1.90;99.90
51557;DHT22;38766;53.194;5.532;2022-12-18T10:40:12;-1.90;99.90
51557;DHT22;38766;53.194;5.532;2022-12-18T10:42:38;-1.80;99.90
51557;DHT22;38766;53.194;5.532;2022-12-18T10:45:13;-1.80;99.90
51557;DHT22;38766;53.194;5.532;2022-12-18T10:47:47;-1.70;99.90
51557;DHT22;38766;53.194;5.532;2022-12-18T10:50:32;-1.70;99.90
51557;DHT22;38766;53.194;5.532;2022-12-18T10:53:19;-1.70;99.90
51557;DHT22;38766;53.194;5.532;2022-12-18T10:55:47;-1.60;99.90
51557;DHT22;38766;53.194;5.532;2022-12-18T10:58:37;-1.60;99.90
51557;DHT22;38766;53.194;5.532;2022-12-18T11:01:17;-1.60;99.90
51557;DHT22;38766;53.194;5.532;2022-12-18T11:06:22;-1.50;99.90
51557;DHT22;38766;53.194;5.532;2022-12-18T11:09:18;-1.50;99.90
51557;DHT22;38766;53.194;5.532;2022-12-18T11:11:52;-1.40;99.90
51557;DHT22;38766;53.194;5.532;2022-12-18T11:16:50;-1.30;99.90
51557;DHT22;38766;53.194;5.532;2022-12-18T11:19:38;-1.40;99.90
51557;DHT22;38766;53.194;5.532;2022-12-18T11:22:32;-1.30;99.90
51557;DHT22;38766;53.194;5.532;2022-12-18T11:27:38;-1.30;99.90
51557;DHT22;38766;53.194;5.532;2022-12-18T11:30:26;-1.30;99.90
51557;DHT22;38766;53.194;5.532;2022-12-18T11:33:17;-1.30;99.90
51557;DHT22;38766;53.194;5.532;2022-12-18T11:35:55;-1.30;99.90
51557;DHT22;38766;53.194;5.532;2022-12-18T11:38:48;-1.20;99.90
51557;DHT22;38766;53.194;5.532;2022-12-18T11:41:34;-1.20;99.90
51557;DHT22;38766;53.194;5.532;2022-12-18T11:44:26;-1.20;99.90
51557;DHT22;38766;53.194;5.532;2022-12-18T11:46:56;-1.20;99.90
51557;DHT22;38766;53.194;5.532;2022-12-18T11:49:28;-1.10;99.90
51557;DHT22;38766;53.194;5.532;2022-12-18T11:54:26;-1.10;99.90
51557;DHT22;38766;53.194;5.532;2022-12-18T11:57:34;-1.10;99.90
51557;DHT22;38766;53.194;5.532;2022-12-18T12:00:15;-1.00;99.90
51557;DHT22;38766;53.194;5.532;2022-12-18T12:17:03;-0.90;99.90
51557;DHT22;38766;53.194;5.532;2022-12-18T12:19:54;-1.00;99.90
51557;DHT22;38766;53.194;5.532;2022-12-18T12:27:36;-0.70;99.90
51557;DHT22;38766;53.194;5.532;2022-12-18T12:35:47;-0.70;99.90
51557;DHT22;38766;53.194;5.532;2022-12-18T12:38:25;-0.60;99.90
51557;DHT22;38766;53.194;5.532;2022-12-18T12:41:13;-0.60;99.90
51557;DHT22;38766;53.194;5.532;2022-12-18T12:44:01;-0.60;99.90
51557;DHT22;38766;53.194;5.532;2022-12-18T12:46:31;-0.50;99.90
51557;DHT22;38766;53.194;5.532;2022-12-18T12:49:01;-0.50;99.90
51557;DHT22;38766;53.194;5.532;2022-12-18T12:51:35;-0.50;99.90
51557;DHT22;38766;53.194;5.532;2022-12-18T12:54:05;-0.50;99.90
51557;DHT22;38766;53.194;5.532;2022-12-18T12:56:51;-0.50;99.90
51557;DHT22;38766;53.194;5.532;2022-12-18T12:59:34;-0.50;99.90
51557;DHT22;38766;53.194;5.532;2022-12-18T13:07:39;-0.40;99.90
51557;DHT22;38766;53.194;5.532;2022-12-18T13:10:21;-0.40;99.90
51557;DHT22;38766;53.194;5.532;2022-12-18T13:12:59;-0.40;99.90
51557;DHT22;38766;53.194;5.532;2022-12-18T13:18:11;-0.40;99.90
51557;DHT22;38766;53.194;5.532;2022-12-18T13:20:40;-0.40;99.90
51557;DHT22;38766;53.194;5.532;2022-12-18T13:25:54;-0.40;99.90
51557;DHT22;38766;53.194;5.532;2022-12-18T13:36:47;-0.40;99.90
51557;DHT22;38766;53.194;5.532;2022-12-18T13:41:51;-0.30;99.90
51557;DHT22;38766;53.194;5.532;2022-12-18T13:44:40;-0.30;99.90
51557;DHT22;38766;53.194;5.532;2022-12-18T13:47:35;-0.30;99.90
51557;DHT22;38766;53.194;5.532;2022-12-18T13:50:13;-0.40;99.90
51557;DHT22;38766;53.194;5.532;2022-12-18T13:52:45;-0.30;99.90
51557;DHT22;38766;53.194;5.532;2022-12-18T13:55:16;-0.40;99.90
51557;DHT22;38766;53.194;5.532;2022-12-18T13:57:43;-0.40;99.90
51557;DHT22;38766;53.194;5.532;2022-12-18T14:00:29;-0.40;99.90
51557;DHT22;38766;53.194;5.532;2022-12-18T14:02:56;-0.40;99.90
51557;DHT22;38766;53.194;5.532;2022-12-18T14:05:27;-0.40;99.90
51557;DHT22;38766;53.194;5.532;2022-12-18T14:07:54;-0.40;99.90
51557;DHT22;38766;53.194;5.532;2022-12-18T14:10:21;-0.40;99.90
51557;DHT22;38766;53.194;5.532;2022-12-18T14:12:48;-0.40;99.90
51557;DHT22;38766;53.194;5.532;2022-12-18T14:20:43;-0.40;99.90
51557;DHT22;38766;53.194;5.532;2022-12-18T14:25:53;-0.40;99.90
51557;DHT22;38766;53.194;5.532;2022-12-18T14:28:19;-0.40;99.90
51557;DHT22;38766;53.194;5.532;2022-12-18T14:30:46;-0.40;99.90
51557;DHT22;38766;53.194;5.532;2022-12-18T14:33:14;-0.50;99.90
51557;DHT22;38766;53.194;5.532;2022-12-18T14:35:42;-0.50;99.90
51557;DHT22;38766;53.194;5.532;2022-12-18T14:38:29;-0.50;99.90
51557;DHT22;38766;53.194;5.532;2022-12-18T14:41:09;-0.50;99.90
51557;DHT22;38766;53.194;5.532;2022-12-18T14:43:37;-0.50;99.90
51557;DHT22;38766;53.194;5.532;2022-12-18T14:48:51;-0.50;99.90
51557;DHT22;38766;53.194;5.532;2022-12-18T14:51:26;-0.50;99.90
51557;DHT22;38766;53.194;5.532;2022-12-18T14:53:58;-0.50;99.90
51557;DHT22;38766;53.194;5.532;2022-12-18T14:56:37;-0.50;99.90
51557;DHT22;38766;53.194;5.532;2022-12-18T14:59:23;-0.50;99.90
51557;DHT22;38766;53.194;5.532;2022-12-18T15:04:48;-0.60;99.90
51557;DHT22;38766;53.194;5.532;2022-12-18T15:07:24;-0.50;99.90
51557;DHT22;38766;53.194;5.532;2022-12-18T15:10:04;-0.60;99.90
51557;DHT22;38766;53.194;5.532;2022-12-18T15:23:04;-0.60;99.90
51557;DHT22;38766;53.194;5.532;2022-12-18T15:25:36;-0.60;99.90
51557;DHT22;38766;53.194;5.532;2022-12-18T15:28:04;-0.60;99.90
51557;DHT22;38766;53.194;5.532;2022-12-18T15:30:40;-0.60;99.90
51557;DHT22;38766;53.194;5.532;2022-12-18T15:33:25;-0.60;99.90
51557;DHT22;38766;53.194;5.532;2022-12-18T15:35:59;-0.60;99.90
51557;DHT22;38766;53.194;5.532;2022-12-18T15:38:25;-0.60;99.90
51557;DHT22;38766;53.194;5.532;2022-12-18T15:40:51;-0.60;99.90
51557;DHT22;38766;53.194;5.532;2022-12-18T15:43:18;-0.60;99.90
51557;DHT22;38766;53.194;5.532;2022-12-18T15:46:21;-0.60;99.90
51557;DHT22;38766;53.194;5.532;2022-12-18T15:48:49;-0.60;99.90
51557;DHT22;38766;53.194;5.532;2022-12-18T15:51:22;-0.60;99.90
51557;DHT22;38766;53.194;5.532;2022-12-18T15:53:51;-0.60;99.90
51557;DHT22;38766;53.194;5.532;2022-12-18T15:56:18;-0.60;99.90
51557;DHT22;38766;53.194;5.532;2022-12-18T15:59:04;-0.60;99.90
51557;DHT22;38766;53.194;5.532;2022-12-18T16:01:34;-0.60;99.90
51557;DHT22;38766;53.194;5.532;2022-12-18T16:03:59;-0.60;99.90
51557;DHT22;38766;53.194;5.532;2022-12-18T16:06:25;-0.60;99.90
51557;DHT22;38766;53.194;5.532;2022-12-18T16:08:50;-0.60;99.90
51557;DHT22;38766;53.194;5.532;2022-12-18T16:11:28;-0.60;99.90
51557;DHT22;38766;53.194;5.532;2022-12-18T16:14:27;-0.50;99.90
51557;DHT22;38766;53.194;5.532;2022-12-18T16:16:56;-0.50;99.90
51557;DHT22;38766;53.194;5.532;2022-12-18T16:19:22;-0.50;99.90
51557;DHT22;38766;53.194;5.532;2022-12-18T16:21:49;-0.40;99.90
51557;DHT22;38766;53.194;5.532;2022-12-18T16:24:23;-0.40;99.90
51557;DHT22;38766;53.194;5.532;2022-12-18T16:26:50;-0.40;99.90
51557;DHT22;38766;53.194;5.532;2022-12-18T16:29:20;-0.40;99.90
51557;DHT22;38766;53.194;5.532;2022-12-18T16:31:50;-0.30;99.90
51557;DHT22;38766;53.194;5.532;2022-12-18T16:34:20;-0.30;99.90
51557;DHT22;38766;53.194;5.532;2022-12-18T16:36:48;-0.30;99.90
51557;DHT22;38766;53.194;5.532;2022-12-18T16:39:14;-0.20;99.90
51557;DHT22;38766;53.194;5.532;2022-12-18T16:41:39;-0.20;99.90
51557;DHT22;38766;53.194;5.532;2022-12-18T16:44:05;-0.20;99.90
51557;DHT22;38766;53.194;5.532;2022-12-18T16:46:31;-0.20;99.90
51557;DHT22;38766;53.194;5.532;2022-12-18T16:48:57;-0.20;99.90
51557;DHT22;38766;53.194;5.532;2022-12-18T16:51:24;-0.10;99.90
51557;DHT22;38766;53.194;5.532;2022-12-18T16:53:50;-0.10;99.90
51557;DHT22;38766;53.194;5.532;2022-12-18T16:56:15;-0.10;99.90
51557;DHT22;38766;53.194;5.532;2022-12-18T16:58:41;-0.10;99.90
51557;DHT22;38766;53.194;5.532;2022-12-18T17:01:09;-0.10;99.90
51557;DHT22;38766;53.194;5.532;2022-12-18T17:03:35;0.00;99.90
51557;DHT22;38766;53.194;5.532;2022-12-18T17:06:05;0.00;99.90
51557;DHT22;38766;53.194;5.532;2022-12-18T17:08:31;0.00;99.90
51557;DHT22;38766;53.194;5.532;2022-12-18T17:11:03;0.00;99.90
51557;DHT22;38766;53.194;5.532;2022-12-18T17:13:29;0.00;99.90
51557;DHT22;38766;53.194;5.532;2022-12-18T17:15:55;0.10;99.90
51557;DHT22;38766;53.194;5.532;2022-12-18T17:18:22;0.10;99.90
51557;DHT22;38766;53.194;5.532;2022-12-18T17:20:47;0.00;99.90
51557;DHT22;38766;53.194;5.532;2022-12-18T17:23:13;0.10;99.90
51557;DHT22;38766;53.194;5.532;2022-12-18T17:25:39;0.10;99.90
51557;DHT22;38766;53.194;5.532;2022-12-18T17:28:04;0.10;99.90
51557;DHT22;38766;53.194;5.532;2022-12-18T17:30:30;0.00;99.90
51557;DHT22;38766;53.194;5.532;2022-12-18T17:32:56;0.00;99.90
51557;DHT22;38766;53.194;5.532;2022-12-18T17:35:21;0.10;99.90
51557;DHT22;38766;53.194;5.532;2022-12-18T17:37:47;0.10;99.90
51557;DHT22;38766;53.194;5.532;2022-12-18T17:40:13;0.10;99.90
51557;DHT22;38766;53.194;5.532;2022-12-18T17:42:38;0.10;99.90
51557;DHT22;38766;53.194;5.532;2022-12-18T17:45:04;0.10;99.90
51557;DHT22;38766;53.194;5.532;2022-12-18T17:47:34;0.10;99.90
51557;DHT22;38766;53.194;5.532;2022-12-18T17:50:00;0.10;99.90
51557;DHT22;38766;53.194;5.532;2022-12-18T17:52:25;0.10;99.90
51557;DHT22;38766;53.194;5.532;2022-12-18T17:54:51;0.20;99.90
51557;DHT22;38766;53.194;5.532;2022-12-18T17:57:17;0.10;99.90
51557;DHT22;38766;53.194;5.532;2022-12-18T17:59:42;0.10;99.90